Time;durP1;ratioP1;P1;durP2;ratioP2;P2;SDS_P1;SDS_P2;PMS_P1;PMS_P2;Temp;Humidity;BMP_temperature;BMP_pressure;BME280_temperature;BME280_humidity;BME280_pressure;Samples;Min_cycle;Max_cycle;Signal;HPM_P1;HPM_P2
2021/08/17 00:00:17;;;;;;;4.40;2.42;;;;;;;28.08;41.90;100992.63;144992;572;6002;-80
2021/08/17 00:02:44;;;;;;;4.20;2.80;;;;;;;28.04;41.94;100991.00;144992;601;6002;-80
2021/08/17 00:05:11;;;;;;;3.33;2.97;;;;;;;27.86;38.49;100987.22;144992;711;6002;-80
2021/08/17 00:07:38;;;;;;;4.47;2.62;;;;;;;27.76;41.87;100991.16;144992;722;6002;-80
2021/08/17 00:10:05;;;;;;;3.22;2.72;;;;;;;27.77;41.88;101001.75;144992;564;6002;-80
2021/08/17 00:12:31;;;;;;;2.90;2.70;;;;;;;27.82;41.41;100990.91;144992;594;6002;-81
2021/08/17 00:14:58;;;;;;;3.70;2.90;;;;;;;27.86;41.16;100985.41;144992;732;6003;-81
2021/08/17 00:17:24;;;;;;;3.15;2.72;;;;;;;27.91;41.00;100990.56;144992;593;6002;-80
2021/08/17 00:19:51;;;;;;;3.25;2.65;;;;;;;27.93;40.72;100987.84;144992;595;6002;-79
2021/08/17 00:22:22;;;;;;;4.07;2.67;;;;;;;27.96;40.61;100988.63;144992;587;6003;-80
2021/08/17 00:24:50;;;;;;;2.70;2.50;;;;;;;27.98;40.46;100993.91;144992;588;6002;-79
2021/08/17 00:27:16;;;;;;;2.70;2.50;;;;;;;28.00;40.39;100992.91;144992;588;6002;-80
2021/08/17 00:29:43;;;;;;;2.92;2.70;;;;;;;28.01;40.24;100994.66;144992;662;6002;-80
2021/08/17 00:32:09;;;;;;;3.28;2.90;;;;;;;28.04;40.23;100991.00;144992;583;6002;-78
2021/08/17 00:34:36;;;;;;;2.60;2.40;;;;;;;28.04;40.08;100988.31;144992;564;6002;-79
2021/08/17 00:37:03;;;;;;;5.80;2.75;;;;;;;28.06;40.10;100994.47;144992;592;6002;-79
2021/08/17 00:39:33;;;;;;;3.90;3.00;;;;;;;28.04;39.98;100980.31;144992;662;6002;-79
2021/08/17 00:41:59;;;;;;;6.78;2.75;;;;;;;28.06;39.95;100983.78;144992;599;6002;-80
2021/08/17 00:44:29;;;;;;;3.22;2.80;;;;;;;28.07;39.81;100980.22;144992;577;6002;-81
2021/08/17 00:46:57;;;;;;;3.65;2.83;;;;;;;28.08;39.84;100986.41;144992;589;6002;-80
2021/08/17 00:49:25;;;;;;;4.75;2.90;;;;;;;28.08;39.79;100989.97;144992;573;6002;-79
2021/08/17 00:52:02;;;;;;;6.45;2.97;;;;;;;28.03;39.84;100989.25;144992;684;6002;-80
2021/08/17 00:54:28;;;;;;;4.90;2.67;;;;;;;28.02;39.92;100984.84;144991;578;6002;-80
2021/08/17 00:57:00;;;;;;;3.15;2.85;;;;;;;28.01;39.91;100986.66;144992;605;6002;-80
2021/08/17 00:59:33;;;;;;;4.37;2.90;;;;;;;28.01;39.91;100984.00;144991;591;6002;-78
2021/08/17 01:02:00;;;;;;;4.20;2.90;;;;;;;28.02;39.86;100987.53;144992;594;6002;-79
2021/08/17 01:04:27;;;;;;;3.97;2.92;;;;;;;28.03;39.96;100989.25;144992;576;6002;-79
2021/08/17 01:06:53;;;;;;;3.47;2.90;;;;;;;28.03;39.93;100989.25;144992;564;6002;-80
2021/08/17 01:09:21;;;;;;;4.20;3.30;;;;;;;28.00;39.97;100982.25;144992;576;6002;-79
2021/08/17 01:11:49;;;;;;;5.50;3.53;;;;;;;28.00;39.99;100984.06;144992;563;6002;-80
2021/08/17 01:14:20;;;;;;;6.28;4.65;;;;;;;27.99;39.84;100983.16;144991;564;6003;-80
2021/08/17 01:16:47;;;;;;;4.65;4.22;;;;;;;27.97;39.78;100981.50;144992;580;6002;-79
2021/08/17 01:19:17;;;;;;;4.78;4.28;;;;;;;27.90;39.92;100977.28;144992;603;6002;-79
2021/08/17 01:21:44;;;;;;;5.47;4.60;;;;;;;27.87;39.85;100978.25;144992;593;6002;-79
2021/08/17 01:24:11;;;;;;;5.28;4.78;;;;;;;27.89;39.71;100973.75;144992;584;6002;-78
2021/08/17 01:26:37;;;;;;;5.40;4.90;;;;;;;27.90;39.63;100980.81;144992;612;6002;-79
2021/08/17 01:29:08;;;;;;;6.60;4.78;;;;;;;27.90;39.57;100978.16;144992;635;6002;-79
2021/08/17 01:31:34;;;;;;;5.25;4.00;;;;;;;27.91;39.38;100971.03;144992;564;6002;-79
2021/08/17 01:34:01;;;;;;;4.62;3.50;;;;;;;27.90;39.26;100969.28;144992;574;6002;-79
2021/08/17 01:36:27;;;;;;;3.92;3.53;;;;;;;27.89;39.31;100971.09;144992;577;6002;-80
2021/08/17 01:38:54;;;;;;;4.85;3.45;;;;;;;27.86;39.10;100961.41;144991;594;6002;-79
2021/08/17 01:41:20;;;;;;;3.80;3.03;;;;;;;27.86;39.07;100979.22;144992;571;6002;-80
2021/08/17 01:43:48;;;;;;;3.10;2.80;;;;;;;27.85;38.98;100970.34;144992;576;6002;-80
2021/08/17 01:46:14;;;;;;;3.15;2.80;;;;;;;27.82;38.73;100970.47;144992;733;6002;-79
2021/08/17 01:48:41;;;;;;;3.05;2.75;;;;;;;27.83;38.61;100974.00;144992;569;6002;-80
2021/08/17 01:51:09;;;;;;;3.45;2.40;;;;;;;27.82;38.51;100970.47;144992;590;6002;-80
2021/08/17 01:53:36;;;;;;;3.62;2.60;;;;;;;27.83;38.37;100971.31;144992;564;6002;-80
2021/08/17 01:56:15;;;;;;;3.85;2.50;;;;;;;27.82;38.22;100970.47;144992;579;6002;-79
2021/08/17 01:58:42;;;;;;;5.22;2.40;;;;;;;27.82;38.19;100966.91;144992;673;6002;-80
2021/08/17 02:01:10;;;;;;;3.53;2.60;;;;;;;27.82;38.08;100972.25;144992;586;6002;-80
2021/08/17 02:03:37;;;;;;;4.22;2.72;;;;;;;27.82;37.88;100972.25;144992;585;6002;-81
2021/08/17 02:06:05;;;;;;;3.00;2.67;;;;;;;27.81;37.87;100970.53;144992;595;6002;-80
2021/08/17 02:08:31;;;;;;;4.75;2.72;;;;;;;27.79;37.73;100965.25;144992;684;6002;-78
2021/08/17 02:10:58;;;;;;;3.30;2.70;;;;;;;27.79;37.69;100973.25;144992;581;6002;-79
2021/08/17 02:13:27;;;;;;;3.17;2.62;;;;;;;27.75;37.66;100963.63;144992;577;6002;-80
2021/08/17 02:15:53;;;;;;;3.28;2.97;;;;;;;27.71;37.84;100961.97;144992;590;6002;-81
2021/08/17 02:18:19;;;;;;;4.70;2.85;;;;;;;27.71;37.80;100958.44;144992;611;6002;-79
2021/08/17 02:20:47;;;;;;;4.22;3.05;;;;;;;27.67;37.93;100960.38;144992;613;6002;-78
2021/08/17 02:23:14;;;;;;;4.00;3.25;;;;;;;27.68;37.88;100954.97;144992;569;6002;-79
2021/08/17 02:25:41;;;;;;;3.35;3.00;;;;;;;27.69;37.86;100951.38;144992;585;6002;-79
2021/08/17 02:28:08;;;;;;;4.65;3.20;;;;;;;27.71;37.69;100956.66;144992;653;6002;-79
2021/08/17 02:30:35;;;;;;;3.42;2.70;;;;;;;27.70;37.65;100952.25;144992;598;6002;-79
2021/08/17 02:33:01;;;;;;;3.40;3.10;;;;;;;27.64;36.60;100950.69;144992;620;6002;-80
2021/08/17 02:35:27;;;;;;;3.17;2.80;;;;;;;27.59;37.52;100949.13;144992;562;6002;-80
2021/08/17 02:37:54;;;;;;;4.47;2.75;;;;;;;27.52;37.08;100951.13;144992;590;6002;-79
2021/08/17 02:40:20;;;;;;;4.03;2.70;;;;;;;27.50;37.61;100953.00;144992;718;6002;-80
2021/08/17 02:42:47;;;;;;;3.03;2.72;;;;;;;27.51;37.69;100954.75;144992;565;6002;-80
2021/08/17 02:45:14;;;;;;;3.50;2.90;;;;;;;27.51;37.81;100955.59;144992;600;6002;-80
2021/08/17 02:47:40;;;;;;;3.20;2.90;;;;;;;27.53;37.60;100955.56;144992;578;6002;-80
2021/08/17 02:50:08;;;;;;;4.75;2.78;;;;;;;27.54;37.58;100956.41;144992;626;6002;-80
2021/08/17 02:52:35;;;;;;;3.50;2.80;;;;;;;27.53;37.54;100957.34;144992;571;6002;-79
2021/08/17 02:55:03;;;;;;;4.95;3.10;;;;;;;27.53;37.52;100957.34;144992;578;6002;-81
2021/08/17 02:57:29;;;;;;;4.55;2.70;;;;;;;27.53;37.58;100958.22;144992;682;6002;-79
2021/08/17 02:59:56;;;;;;;3.15;2.75;;;;;;;27.50;37.45;100956.56;144992;659;6002;-79
2021/08/17 03:02:22;;;;;;;3.03;2.72;;;;;;;27.48;37.36;100955.72;144992;575;6002;-80
2021/08/17 03:04:49;;;;;;;3.92;2.78;;;;;;;27.47;37.27;100954.00;144992;585;6002;-80
2021/08/17 03:07:15;;;;;;;4.05;2.80;;;;;;;27.48;37.23;100953.06;144992;573;6002;-79
2021/08/17 03:09:42;;;;;;;3.62;2.70;;;;;;;27.48;37.12;100958.38;144992;728;6002;-80
2021/08/17 03:12:08;;;;;;;4.50;2.67;;;;;;;27.47;36.95;100959.34;144992;585;6002;-80
2021/08/17 03:14:35;;;;;;;6.07;2.83;;;;;;;27.46;36.99;100954.06;144992;766;6002;-78
2021/08/17 03:17:01;;;;;;;3.17;2.72;;;;;;;27.45;37.03;100952.31;144992;563;6002;-79
2021/08/17 03:19:28;;;;;;;3.90;2.97;;;;;;;27.41;36.95;100954.22;144992;591;6002;-80
2021/08/17 03:21:54;;;;;;;3.85;3.12;;;;;;;27.41;36.97;100953.34;144992;601;6002;-80
2021/08/17 03:24:20;;;;;;;5.55;2.72;;;;;;;27.35;36.91;100951.78;144992;677;6002;-80
2021/08/17 03:26:47;;;;;;;3.95;3.10;;;;;;;27.33;37.00;100954.50;144992;686;6002;-78
2021/08/17 03:29:13;;;;;;;6.60;3.15;;;;;;;27.33;36.93;100950.97;144992;578;6002;-79
2021/08/17 03:31:40;;;;;;;4.40;2.92;;;;;;;27.34;37.09;100950.03;144992;638;6002;-77
2021/08/17 03:34:06;;;;;;;4.32;3.10;;;;;;;27.36;37.14;100955.31;144992;569;6002;-77
2021/08/17 03:36:33;;;;;;;3.95;2.72;;;;;;;27.35;36.88;100961.59;144992;597;6002;-80
2021/08/17 03:38:59;;;;;;;4.10;2.97;;;;;;;27.33;37.07;100956.31;144992;694;6002;-79
2021/08/17 03:41:25;;;;;;;4.57;3.00;;;;;;;27.28;36.89;100958.22;144992;563;6002;-80
2021/08/17 03:43:52;;;;;;;3.12;2.80;;;;;;;27.24;36.98;100961.94;144992;570;6002;-79
2021/08/17 03:46:19;;;;;;;4.47;3.08;;;;;;;27.23;37.14;100966.38;144992;646;6002;-79
2021/08/17 03:48:45;;;;;;;4.70;2.85;;;;;;;27.23;37.05;100965.50;144992;593;6002;-79
2021/08/17 03:51:12;;;;;;;3.97;2.90;;;;;;;27.24;37.11;100959.28;144992;585;6002;-79
2021/08/17 03:53:38;;;;;;;4.10;3.05;;;;;;;27.23;37.21;100962.84;144992;587;6002;-79
2021/08/17 03:56:05;;;;;;;7.82;3.10;;;;;;;27.24;36.94;100968.13;144992;583;6002;-80
2021/08/17 03:58:31;;;;;;;5.62;3.33;;;;;;;27.23;37.42;100962.84;144992;585;6002;-79
2021/08/17 04:00:58;;;;;;;4.97;3.20;;;;;;;27.24;36.99;100964.59;144992;581;6002;-78
2021/08/17 04:03:24;;;;;;;6.82;3.40;;;;;;;27.26;37.43;100968.06;144992;595;6002;-81
2021/08/17 04:05:51;;;;;;;5.28;3.15;;;;;;;27.27;37.57;100961.81;144992;623;6002;-78
2021/08/17 04:08:19;;;;;;;4.82;3.40;;;;;;;27.29;37.59;100970.62;144991;575;6002;-80
2021/08/17 04:10:47;;;;;;;4.95;3.15;;;;;;;27.33;37.60;100962.50;144992;588;6002;-80
2021/08/17 04:13:14;;;;;;;6.72;3.20;;;;;;;27.36;37.79;100968.63;144992;569;6002;-81
2021/08/17 04:15:40;;;;;;;5.65;3.00;;;;;;;27.37;37.67;100965.06;144992;601;6002;-78
2021/08/17 04:18:07;;;;;;;4.85;3.53;;;;;;;27.38;37.58;100964.09;144992;750;6002;-79
2021/08/17 04:20:35;;;;;;;6.57;3.87;;;;;;;27.37;37.54;100967.72;144992;570;6003;-80
2021/08/17 04:23:02;;;;;;;6.35;4.55;;;;;;;27.37;37.56;100967.72;144992;625;6002;-82
2021/08/17 04:25:29;;;;;;;10.80;4.32;;;;;;;27.36;37.60;100965.97;144992;569;6002;-80
2021/08/17 04:27:55;;;;;;;8.07;3.78;;;;;;;27.34;37.54;100968.69;144992;572;6002;-80
2021/08/17 04:30:22;;;;;;;4.85;3.50;;;;;;;27.33;37.82;100964.31;144992;583;6002;-79
2021/08/17 04:32:48;;;;;;;6.20;3.45;;;;;;;27.28;37.47;100963.53;144992;563;6002;-80
2021/08/17 04:35:19;;;;;;;4.87;3.30;;;;;;;27.27;37.59;100961.81;144992;585;6002;-81
2021/08/17 04:37:46;;;;;;;5.47;3.12;;;;;;;27.27;37.91;100953.81;144992;566;6002;-80
2021/08/17 04:40:15;;;;;;;7.22;3.67;;;;;;;27.27;37.93;100960.00;144992;584;6002;-80
2021/08/17 04:42:41;;;;;;;7.25;3.62;;;;;;;27.29;37.96;100960.81;144992;620;6002;-79
2021/08/17 04:45:08;;;;;;;8.13;3.20;;;;;;;27.32;37.95;100960.75;144992;586;6002;-78
2021/08/17 04:47:35;;;;;;;3.78;3.28;;;;;;;27.38;38.30;100961.44;144992;585;6002;-79
2021/08/17 04:50:01;;;;;;;5.30;3.50;;;;;;;27.41;38.15;100964.88;144992;712;6002;-79
2021/08/17 04:52:28;;;;;;;8.88;4.05;;;;;;;27.45;38.16;100969.16;144992;570;6002;-80
2021/08/17 04:54:54;;;;;;;5.75;3.70;;;;;;;27.49;38.27;100968.13;144992;569;6002;-80
2021/08/17 04:57:21;;;;;;;5.20;3.55;;;;;;;27.53;38.25;100965.34;144992;913;6002;-80
2021/08/17 04:59:48;;;;;;;5.05;3.45;;;;;;;27.57;38.30;100964.31;144992;599;6002;-79
2021/08/17 05:02:14;;;;;;;6.05;3.45;;;;;;;27.61;38.28;100966.78;144992;563;6002;-79
2021/08/17 05:04:40;;;;;;;4.65;3.75;;;;;;;27.64;38.17;100964.00;144992;591;6002;-80
2021/08/17 05:07:07;;;;;;;7.95;5.45;;;;;;;27.64;38.19;100963.16;144992;569;6002;-80
2021/08/17 05:09:36;;;;;;;8.25;4.80;;;;;;;27.64;38.27;100961.34;144992;570;6002;-80
2021/08/17 05:12:05;;;;;;;8.05;5.37;;;;;;;27.68;38.44;100971.00;144992;577;6002;-78
2021/08/17 05:14:31;;;;;;;6.70;4.32;;;;;;;27.74;38.29;100979.69;144992;752;6002;-80
2021/08/17 05:16:58;;;;;;;6.25;4.22;;;;;;;27.78;38.29;100978.66;144992;566;6002;-80
2021/08/17 05:19:24;;;;;;;6.00;3.95;;;;;;;27.81;38.33;100974.06;144992;569;6002;-79
2021/08/17 05:21:51;;;;;;;10.60;4.15;;;;;;;27.86;38.30;100977.41;144992;579;6010;-80
2021/08/17 05:24:17;;;;;;;6.68;4.12;;;;;;;27.91;38.37;100981.72;144992;570;6002;-79
2021/08/17 05:26:43;;;;;;;8.80;4.05;;;;;;;27.94;38.35;100985.16;144992;704;6002;-79
2021/08/17 05:29:10;;;;;;;5.62;3.67;;;;;;;27.99;38.26;100987.66;144992;594;6002;-79
2021/08/17 05:31:36;;;;;;;5.07;3.37;;;;;;;28.02;38.15;100983.06;144992;623;6002;-79
2021/08/17 05:34:03;;;;;;;6.70;4.40;;;;;;;28.07;38.13;100982.00;144992;575;6002;-79
2021/08/17 05:36:29;;;;;;;9.27;4.12;;;;;;;28.11;38.31;100980.94;144992;564;6002;-80
2021/08/17 05:38:56;;;;;;;5.90;3.67;;;;;;;28.12;38.20;100990.69;144992;587;6002;-79
2021/08/17 05:41:22;;;;;;;5.60;3.75;;;;;;;28.14;38.11;100984.38;144992;595;6002;-79
2021/08/17 05:43:48;;;;;;;5.53;4.10;;;;;;;28.20;38.04;100988.59;144992;573;6002;-80
2021/08/17 05:46:15;;;;;;;5.53;3.90;;;;;;;28.25;38.14;100989.28;144992;600;6002;-79
2021/08/17 05:48:41;;;;;;;6.12;4.30;;;;;;;28.30;38.14;100987.31;144992;736;6002;-79
2021/08/17 05:51:09;;;;;;;7.95;3.65;;;;;;;28.33;38.14;100984.53;144992;582;6002;-80
2021/08/17 05:53:36;;;;;;;4.57;3.65;;;;;;;28.39;38.00;100991.41;144992;583;6002;-79
2021/08/17 05:56:02;;;;;;;7.97;3.42;;;;;;;28.48;37.75;100987.50;144991;571;6002;-80
2021/08/17 05:58:29;;;;;;;4.25;3.78;;;;;;;28.56;37.88;100988.91;144992;578;6002;-80
2021/08/17 06:00:55;;;;;;;5.05;3.10;;;;;;;28.62;37.67;100981.59;144992;598;6002;-80
2021/08/17 06:03:22;;;;;;;4.22;3.42;;;;;;;28.62;37.35;100987.84;144992;697;6002;-80
2021/08/17 06:05:48;;;;;;;3.83;3.00;;;;;;;28.65;37.21;100984.16;144992;578;6002;-80
2021/08/17 06:08:15;;;;;;;6.32;3.90;;;;;;;28.60;35.29;100984.34;144992;593;6002;-80
2021/08/17 06:10:42;;;;;;;5.62;4.40;;;;;;;28.65;37.09;100985.03;144992;655;6002;-80
2021/08/17 06:13:08;;;;;;;9.25;4.10;;;;;;;28.73;37.05;100990.91;144993;598;6002;-80
2021/08/17 06:15:35;;;;;;;7.47;4.35;;;;;;;28.75;37.08;100989.03;144993;569;6002;-80
2021/08/17 06:18:05;;;;;;;7.82;3.33;;;;;;;28.82;37.21;101000.34;144993;565;6002;-80
2021/08/17 06:20:32;;;;;;;3.60;3.15;;;;;;;28.85;36.95;100999.34;144993;732;6002;-81
2021/08/17 06:22:58;;;;;;;5.90;3.47;;;;;;;28.81;36.63;100993.28;144993;609;6002;-81
2021/08/17 06:25:25;;;;;;;3.80;3.00;;;;;;;28.78;37.32;101004.09;144993;564;6002;-81
2021/08/17 06:27:52;;;;;;;7.07;3.50;;;;;;;28.81;37.35;100993.28;144993;570;6003;-80
2021/08/17 06:30:18;;;;;;;4.70;3.47;;;;;;;28.85;37.56;100997.53;144993;578;6002;-81
2021/08/17 06:32:45;;;;;;;5.43;3.33;;;;;;;28.89;38.47;101004.50;144993;580;6002;-79
2021/08/17 06:35:11;;;;;;;6.75;3.60;;;;;;;28.94;37.96;100997.16;144993;577;6002;-80
2021/08/17 06:37:38;;;;;;;8.18;3.47;;;;;;;28.99;38.29;100999.63;144993;569;6002;-79
2021/08/17 06:40:05;;;;;;;6.22;3.78;;;;;;;28.98;38.22;101007.72;144993;581;6002;-80
2021/08/17 06:42:32;;;;;;;8.48;3.80;;;;;;;29.05;38.62;100998.47;144993;628;6002;-79
2021/08/17 06:44:59;;;;;;;6.62;4.20;;;;;;;28.97;39.31;101001.50;144992;702;6002;-80
2021/08/17 06:47:25;;;;;;;10.05;5.32;;;;;;;28.94;39.01;100998.97;144991;586;6002;-80
2021/08/17 06:49:51;;;;;;;6.37;5.25;;;;;;;28.96;39.98;100997.09;144992;589;6002;-81
2021/08/17 06:52:18;;;;;;;9.07;4.35;;;;;;;28.92;39.41;101001.69;144992;617;6002;-80
2021/08/17 06:54:44;;;;;;;11.85;4.57;;;;;;;28.89;41.07;100995.59;144992;593;6002;-79
2021/08/17 06:57:11;;;;;;;7.28;4.22;;;;;;;28.99;39.59;101002.31;144992;649;6002;-78
2021/08/17 06:59:37;;;;;;;6.95;4.05;;;;;;;29.17;39.38;100989.94;144993;598;6002;-79
2021/08/17 07:02:04;;;;;;;8.75;3.42;;;;;;;29.23;39.56;100997.72;144993;681;6002;-80
2021/08/17 07:04:32;;;;;;;7.00;3.58;;;;;;;29.34;40.12;100999.06;144993;591;6002;-79
2021/08/17 07:06:58;;;;;;;8.68;3.55;;;;;;;29.46;39.55;101003.84;144993;692;6002;-78
2021/08/17 07:09:24;;;;;;;6.12;3.97;;;;;;;29.45;39.94;101005.66;144993;601;6002;-78
2021/08/17 07:11:51;;;;;;;5.62;3.33;;;;;;;29.61;39.11;101011.19;144993;612;6003;-80
2021/08/17 07:14:18;;;;;;;4.95;3.42;;;;;;;29.64;39.25;101000.34;144992;619;6002;-79
2021/08/17 07:16:45;;;;;;;6.00;3.90;;;;;;;29.72;38.92;101009.84;144993;577;6002;-79
2021/08/17 07:19:11;;;;;;;4.43;3.50;;;;;;;29.80;39.09;101010.37;144993;604;6003;-80
2021/08/17 07:21:37;;;;;;;5.28;3.47;;;;;;;29.83;38.98;101004.91;144993;576;6002;-80
2021/08/17 07:24:04;;;;;;;5.35;3.35;;;;;;;29.94;38.53;100996.34;144993;636;6002;-80
2021/08/17 07:26:31;;;;;;;4.90;3.50;;;;;;;30.06;38.45;100992.22;144993;606;6002;-80
2021/08/17 07:28:57;;;;;;;7.35;3.53;;;;;;;30.12;38.75;100999.97;144993;595;6002;-80
2021/08/17 07:31:24;;;;;;;7.12;3.33;;;;;;;30.09;38.91;100992.94;144993;579;6002;-79
2021/08/17 07:33:51;;;;;;;5.62;3.72;;;;;;;30.11;38.84;100993.72;144993;587;6002;-79
2021/08/17 07:36:17;;;;;;;7.05;3.30;;;;;;;30.07;38.73;100991.28;144993;596;6002;-79
2021/08/17 07:38:44;;;;;;;5.00;3.08;;;;;;;30.07;38.93;100992.16;144993;572;6002;-80
2021/08/17 07:41:10;;;;;;;7.90;3.30;;;;;;;30.06;38.86;100989.56;144993;600;6002;-80
2021/08/17 07:43:37;;;;;;;6.47;3.10;;;;;;;30.01;38.16;100985.28;144993;601;6002;-80
2021/08/17 07:46:03;;;;;;;5.65;3.03;;;;;;;30.03;38.74;100990.56;144993;566;6002;-81
2021/08/17 07:48:32;;;;;;;5.68;3.20;;;;;;;30.11;38.22;100984.84;144993;582;6002;-78
2021/08/17 07:51:07;;;;;;;4.40;3.22;;;;;;;30.27;38.24;100990.31;144993;594;6002;-80
2021/08/17 07:53:34;;;;;;;4.55;3.03;;;;;;;30.41;37.51;100984.34;144994;615;5002;-78
2021/08/17 07:56:01;;;;;;;6.70;3.30;;;;;;;30.48;37.39;100991.09;144994;657;5002;-80
2021/08/17 07:58:27;;;;;;;9.55;3.20;;;;;;;30.55;36.34;100989.87;144994;634;5002;-80
2021/08/17 08:00:54;;;;;;;7.15;3.10;;;;;;;30.53;35.89;100986.41;144994;593;5002;-78
2021/08/17 08:03:20;;;;;;;8.20;3.70;;;;;;;30.43;36.11;100988.66;144994;595;5002;-79
2021/08/17 08:05:46;;;;;;;11.12;3.17;;;;;;;30.35;34.35;100983.66;144994;587;5002;-80
2021/08/17 08:08:13;;;;;;;6.32;3.50;;;;;;;30.61;35.61;100994.03;144994;582;5002;-79
2021/08/17 08:10:39;;;;;;;7.53;3.33;;;;;;;30.47;37.41;100992.06;144994;581;5002;-81
2021/08/17 08:13:06;;;;;;;7.50;3.03;;;;;;;30.68;36.91;100990.97;144994;564;5002;-79
2021/08/17 08:15:32;;;;;;;4.45;3.03;;;;;;;30.65;37.29;100993.81;144994;579;5002;-79
2021/08/17 08:17:59;;;;;;;7.32;3.33;;;;;;;30.62;38.21;100988.59;144994;619;5002;-80
2021/08/17 08:20:25;;;;;;;5.50;3.30;;;;;;;30.67;38.12;100991.06;144994;564;5002;-81
2021/08/17 08:22:52;;;;;;;5.43;3.20;;;;;;;30.68;38.50;100988.31;144994;612;5002;-80
2021/08/17 08:25:19;;;;;;;5.62;3.08;;;;;;;30.65;37.67;100982.25;144994;584;5002;-79
2021/08/17 08:27:46;;;;;;;6.72;2.85;;;;;;;30.62;37.36;100983.25;144994;569;5002;-80
2021/08/17 08:30:14;;;;;;;3.58;3.25;;;;;;;30.45;36.11;100978.75;144994;583;5002;-80
2021/08/17 08:32:41;;;;;;;6.15;3.00;;;;;;;30.52;36.94;100980.16;144994;572;5002;-78
2021/08/17 08:35:09;;;;;;;4.78;3.05;;;;;;;30.53;36.65;100973.88;144994;620;5002;-80
2021/08/17 08:37:35;;;;;;;5.05;2.62;;;;;;;30.54;37.00;100970.28;144994;576;5002;-82
2021/08/17 08:40:03;;;;;;;3.40;3.10;;;;;;;30.49;37.13;100969.59;144994;646;5002;-81
2021/08/17 08:42:29;;;;;;;3.83;3.22;;;;;;;30.47;38.05;100966.16;144994;586;5002;-80
2021/08/17 08:44:56;;;;;;;5.20;2.90;;;;;;;30.63;37.36;100966.25;144994;599;5002;-79
2021/08/17 08:47:23;;;;;;;4.60;3.33;;;;;;;30.60;39.67;100963.72;144994;633;5002;-80
2021/08/17 08:49:51;;;;;;;4.25;3.42;;;;;;;30.50;39.50;100954.44;144993;587;5002;-79
2021/08/17 08:52:19;;;;;;;4.43;3.15;;;;;;;30.53;40.08;100960.50;144994;566;5002;-79
2021/08/17 08:54:46;;;;;;;4.05;3.15;;;;;;;30.55;40.26;100961.25;144994;592;5002;-81
2021/08/17 08:57:14;;;;;;;4.03;3.40;;;;;;;30.61;40.36;100949.37;144994;575;5002;-80
2021/08/17 08:59:41;;;;;;;3.30;3.00;;;;;;;30.66;40.76;100958.06;144994;617;5002;-78
2021/08/17 09:02:19;;;;;;;3.92;3.30;;;;;;;30.60;40.88;100953.00;144994;570;5002;-80
2021/08/17 09:04:55;;;;;;;3.62;3.20;;;;;;;30.48;41.08;100950.94;144994;582;5004;-78
2021/08/17 09:07:46;;;;;;;5.70;3.60;;;;;;;30.64;39.08;100951.91;144994;567;5004;-80
2021/08/17 09:10:18;;;;;;;3.10;2.80;;;;;;;30.70;37.68;100942.69;144994;597;5004;-78
2021/08/17 09:12:47;;;;;;;4.70;3.12;;;;;;;30.81;37.03;100943.00;144994;576;5004;-79
2021/08/17 09:15:34;;;;;;;4.35;3.20;;;;;;;30.72;37.87;100941.66;144994;572;5004;-80
2021/08/17 09:18:11;;;;;;;5.37;3.65;;;;;;;30.72;37.96;100933.62;144994;647;5002;-80
2021/08/17 09:20:44;;;;;;;5.18;3.30;;;;;;;30.78;38.20;100937.78;144994;576;5002;-80
2021/08/17 09:23:45;;;;;;;4.05;3.28;;;;;;;30.89;38.44;100937.25;144994;566;5002;-81
2021/08/17 09:26:26;;;;;;;4.55;3.10;;;;;;;31.09;38.64;100933.56;144994;570;5003;-86
2021/08/17 09:29:01;;;;;;;4.35;2.95;;;;;;;31.18;38.24;100932.19;144994;581;5002;-81
2021/08/17 09:31:35;;;;;;;3.92;3.03;;;;;;;31.23;37.71;100927.47;144994;569;5002;-79
2021/08/17 09:34:02;;;;;;;3.78;3.08;;;;;;;31.16;37.23;100928.72;144994;584;5002;-78
2021/08/17 09:36:40;;;;;;;5.12;2.87;;;;;;;31.20;35.86;100919.59;144994;579;5002;-79
2021/08/17 09:39:08;;;;;;;3.53;2.90;;;;;;;31.19;36.85;100917.84;144994;592;5002;-79
2021/08/17 09:41:35;;;;;;;4.37;3.30;;;;;;;31.17;37.00;100925.13;144993;590;5002;-80
2021/08/17 09:44:04;;;;;;;4.10;3.05;;;;;;;31.17;36.90;100922.44;144994;578;5002;-80
2021/08/17 09:46:36;;;;;;;4.15;2.67;;;;;;;31.35;37.26;100913.38;144994;613;5002;-80
2021/08/17 09:49:23;;;;;;;2.92;2.42;;;;;;;31.33;36.73;100909.91;144994;570;5002;-80
2021/08/17 09:51:49;;;;;;;4.43;2.90;;;;;;;31.19;36.79;100907.97;144994;693;5004;-81
2021/08/17 09:54:18;;;;;;;3.03;2.72;;;;;;;31.26;36.61;100906.72;144994;623;5004;-79
2021/08/17 09:56:55;;;;;;;3.12;2.45;;;;;;;31.50;36.10;100900.06;144994;592;5004;-79
2021/08/17 09:59:23;;;;;;;4.20;2.90;;;;;;;31.54;35.04;100899.00;144994;617;5004;-80
2021/08/17 10:01:51;;;;;;;4.75;2.60;;;;;;;31.50;35.63;100900.06;144993;626;5004;-79
2021/08/17 10:04:19;;;;;;;4.18;2.83;;;;;;;31.59;34.87;100891.56;144994;571;5002;-79
2021/08/17 10:06:46;;;;;;;3.75;2.72;;;;;;;31.58;34.44;100885.31;144994;635;5002;-80
2021/08/17 10:09:15;;;;;;;3.50;2.35;;;;;;;31.50;34.12;100886.66;144994;633;5002;-78
2021/08/17 10:11:43;;;;;;;4.03;2.87;;;;;;;31.64;33.94;100878.72;144994;714;5002;-80
2021/08/17 10:14:14;;;;;;;5.50;2.30;;;;;;;31.66;33.49;100879.53;144994;591;5002;-81
2021/08/17 10:16:41;;;;;;;4.35;2.40;;;;;;;31.66;33.44;100876.84;144994;676;5002;-79
2021/08/17 10:19:10;;;;;;;6.03;2.47;;;;;;;31.81;32.85;100873.28;144994;657;5002;-80
2021/08/17 10:21:42;;;;;;;4.05;2.40;;;;;;;31.98;31.62;100876.84;144994;576;5002;-79
2021/08/17 10:24:40;;;;;;;3.15;2.37;;;;;;;32.04;30.55;100871.13;144994;564;5002;-78
2021/08/17 10:27:21;;;;;;;6.03;2.65;;;;;;;32.11;29.86;100869.81;144994;615;5004;-79
2021/08/17 10:30:07;;;;;;;3.22;2.20;;;;;;;32.18;28.91;100868.53;144994;721;5004;-80
2021/08/17 10:32:39;;;;;;;3.80;2.15;;;;;;;32.13;29.22;100869.72;144994;643;5002;-79
2021/08/17 10:35:08;;;;;;;3.10;2.17;;;;;;;32.05;29.99;100866.59;144994;571;5002;-80
2021/08/17 10:37:37;;;;;;;3.30;2.40;;;;;;;32.17;30.50;100873.97;144994;564;5002;-79
2021/08/17 10:40:04;;;;;;;4.97;2.20;;;;;;;32.10;30.27;100867.22;144993;563;5002;-80
2021/08/17 10:42:30;;;;;;;3.45;2.40;;;;;;;32.05;30.16;100859.41;144994;725;5002;-80
2021/08/17 10:45:35;;;;;;;3.10;2.17;;;;;;;32.09;29.61;100858.31;144994;694;5002;-80
2021/08/17 10:48:01;;;;;;;3.50;2.10;;;;;;;32.21;29.88;100862.09;144994;588;5004;-79
2021/08/17 10:50:33;;;;;;;2.87;2.00;;;;;;;32.19;29.61;100855.94;144994;687;5004;-80
2021/08/17 10:52:59;;;;;;;2.95;2.22;;;;;;;32.21;29.55;100839.75;144994;576;5004;-79
2021/08/17 10:55:34;;;;;;;2.87;2.33;;;;;;;32.25;29.97;100841.31;144994;631;5004;-78
2021/08/17 10:58:07;;;;;;;2.33;2.12;;;;;;;32.29;29.64;100849.06;144994;664;5004;-79
2021/08/17 11:00:50;;;;;;;4.72;2.83;;;;;;;32.23;30.61;100844.09;144994;580;5004;-79
2021/08/17 11:03:41;;;;;;;2.78;2.08;;;;;;;32.26;28.54;100830.47;144994;591;5004;-79
2021/08/17 11:06:08;;;;;;;3.08;2.40;;;;;;;32.35;30.12;100831.72;144994;655;5002;-79
2021/08/17 11:08:39;;;;;;;2.40;2.20;;;;;;;32.36;30.28;100828.94;144994;650;5002;-80
2021/08/17 11:11:25;;;;;;;4.32;2.25;;;;;;;32.41;30.69;100827.81;144993;694;5002;-79
2021/08/17 11:14:06;;;;;;;4.50;2.33;;;;;;;32.43;30.98;100818.69;144994;622;5004;-81
2021/08/17 11:16:33;;;;;;;3.20;2.20;;;;;;;32.59;29.99;100815.94;144994;691;5004;-80
2021/08/17 11:19:03;;;;;;;2.75;2.22;;;;;;;32.64;30.49;100819.22;144994;583;5004;-81
2021/08/17 11:21:35;;;;;;;4.68;2.47;;;;;;;32.52;29.78;100818.12;144994;699;5004;-80
2021/08/17 11:24:14;;;;;;;3.25;1.90;;;;;;;32.62;29.78;100807.69;144994;592;5004;-80
2021/08/17 11:26:43;;;;;;;3.65;2.28;;;;;;;32.52;29.40;100806.53;144994;568;5004;-81
2021/08/17 11:29:16;;;;;;;3.20;2.15;;;;;;;32.47;29.55;100797.88;144994;585;5004;-80
2021/08/17 11:31:47;;;;;;;3.08;2.33;;;;;;;32.53;29.40;100814.50;144994;598;5004;-81
2021/08/17 11:34:18;;;;;;;3.25;1.90;;;;;;;32.43;28.39;100799.87;144994;685;5004;-79
2021/08/17 11:37:05;;;;;;;2.72;2.03;;;;;;;32.53;28.51;100800.19;144994;571;5004;-79
2021/08/17 11:39:45;;;;;;;3.92;2.03;;;;;;;32.57;29.41;100799.06;144994;603;5004;-83